Time;durP1;ratioP1;P1;durP2;ratioP2;P2;SDS_P1;SDS_P2;PMS_P1;PMS_P2;Temp;Humidity;BMP_temperature;BMP_pressure;BME280_temperature;BME280_humidity;BME280_pressure;Samples;Min_cycle;Max_cycle;Signal;HPM_P1;HPM_P2
2022/01/16 00:04:05;;;;;;;12.73;9.33;;;0.70;99.90;;;;;;4976884;28;20800;-79
2022/01/16 00:05:31;;;;;;;18.77;10.70;;;0.80;99.90;;;;;;4977670;28;20492;-80
2022/01/16 00:08:17;;;;;;;15.20;9.13;;;1.00;99.90;;;;;;4967940;28;20462;-79
2022/01/16 00:11:02;;;;;;;21.43;10.40;;;0.90;99.90;;;;;;4968090;28;20773;-79
2022/01/16 00:13:46;;;;;;;22.67;11.43;;;0.90;99.90;;;;;;4909453;29;20405;-79
2022/01/16 00:16:33;;;;;;;10.27;8.17;;;1.00;99.90;;;;;;4906977;29;20481;-79
2022/01/16 00:19:18;;;;;;;15.73;9.73;;;1.10;99.90;;;;;;4893850;29;20453;-79
2022/01/16 00:22:11;;;;;;;15.83;11.43;;;0.90;99.90;;;;;;4905857;29;20440;-79
2022/01/16 00:25:16;;;;;;;18.33;11.20;;;0.80;99.90;;;;;;4906363;29;20472;-79
2022/01/16 00:28:01;;;;;;;13.53;12.00;;;1.10;99.90;;;;;;4906457;29;20417;-80
2022/01/16 00:30:46;;;;;;;24.33;11.43;;;1.20;99.90;;;;;;4905754;29;20547;-79
2022/01/16 00:33:30;;;;;;;14.13;10.50;;;1.20;99.90;;;;;;4907098;29;20543;-79
2022/01/16 00:36:35;;;;;;;31.63;12.43;;;0.90;99.90;;;;;;4877036;29;20410;-79
2022/01/16 00:39:19;;;;;;;14.43;11.33;;;0.80;99.90;;;;;;4861937;29;20419;-79
2022/01/16 00:42:04;;;;;;;14.47;10.03;;;0.90;99.90;;;;;;4856294;29;20400;-79
2022/01/16 00:44:50;;;;;;;16.10;10.03;;;1.00;99.90;;;;;;4866924;29;20465;-80
2022/01/16 00:47:37;;;;;;;16.00;10.73;;;1.10;99.90;;;;;;4855413;29;20434;-79
2022/01/16 00:50:21;;;;;;;16.83;10.43;;;1.00;99.90;;;;;;4868333;29;20407;-79
2022/01/16 00:53:07;;;;;;;14.27;8.87;;;1.00;99.90;;;;;;4871437;29;20803;-79
2022/01/16 00:55:53;;;;;;;16.50;10.00;;;1.00;99.90;;;;;;4869216;29;20594;-79
2022/01/16 00:58:37;;;;;;;13.60;11.57;;;0.90;99.90;;;;;;4868530;29;20478;-79
2022/01/16 01:01:21;;;;;;;13.73;9.40;;;0.90;99.90;;;;;;4880561;29;20447;-79
2022/01/16 01:04:06;;;;;;;13.93;10.33;;;1.00;99.90;;;;;;4902606;29;20481;-80
2022/01/16 01:06:51;;;;;;;18.00;11.70;;;0.90;99.90;;;;;;4912456;29;20400;-79
2022/01/16 01:09:36;;;;;;;13.43;8.97;;;0.90;99.90;;;;;;4919800;29;20529;-79
2022/01/16 01:12:29;;;;;;;24.03;11.60;;;0.90;99.90;;;;;;4920026;29;20457;-79
2022/01/16 01:15:14;;;;;;;13.40;9.63;;;0.90;99.90;;;;;;4906308;29;20800;-79
2022/01/16 01:18:01;;;;;;;13.00;10.27;;;0.90;99.90;;;;;;4933908;29;20428;-79
2022/01/16 01:20:50;;;;;;;11.80;8.10;;;1.10;99.90;;;;;;4958154;28;20404;-79
2022/01/16 01:23:36;;;;;;;15.83;8.00;;;1.00;99.90;;;;;;4958781;29;20421;-80
2022/01/16 01:26:25;;;;;;;17.07;10.30;;;1.00;99.90;;;;;;4945254;29;20374;-79
2022/01/16 01:29:13;;;;;;;13.57;11.10;;;1.00;99.90;;;;;;4966113;28;20969;-79
2022/01/16 01:31:58;;;;;;;14.00;9.83;;;1.10;99.90;;;;;;4991165;28;20388;-79
2022/01/16 01:34:44;;;;;;;21.73;11.00;;;1.00;99.90;;;;;;4989680;28;20748;-79
2022/01/16 01:37:30;;;;;;;13.40;9.27;;;1.00;99.90;;;;;;4989865;28;20364;-79
2022/01/16 01:40:20;;;;;;;15.27;11.03;;;0.80;99.90;;;;;;4975254;28;20417;-79
2022/01/16 01:52:03;;;;;;;11.23;8.33;;;1.30;99.90;;;;;;5003164;28;20444;-79
2022/01/16 01:54:53;;;;;;;10.87;8.30;;;1.40;99.90;;;;;;5002778;28;20401;-79
2022/01/16 01:57:37;;;;;;;21.20;10.20;;;1.60;99.90;;;;;;5002352;28;20451;-79
2022/01/16 02:00:25;;;;;;;13.52;8.25;;;1.50;99.90;;;;;;4968084;28;20465;-79
2022/01/16 02:03:15;;;;;;;10.53;8.53;;;1.30;99.90;;;;;;4967568;28;20239;-79
2022/01/16 02:06:03;;;;;;;17.63;7.20;;;1.40;99.90;;;;;;4981820;28;20367;-79
2022/01/16 02:08:51;;;;;;;5.83;5.37;;;1.30;99.90;;;;;;4941264;28;20418;-79
2022/01/16 02:11:41;;;;;;;18.77;9.90;;;1.30;99.90;;;;;;4954614;28;20351;-79
2022/01/16 02:14:32;;;;;;;13.27;6.90;;;1.50;99.90;;;;;;4968031;28;20434;-79
2022/01/16 02:35:39;;;;;;;15.63;8.73;;;1.40;99.90;;;;;;4934338;29;20442;-79
2022/01/16 02:38:25;;;;;;;14.30;9.33;;;1.70;99.90;;;;;;4932570;29;20435;-79
2022/01/16 02:41:13;;;;;;;15.80;10.23;;;1.60;99.90;;;;;;4919443;29;20393;-79
2022/01/16 02:43:58;;;;;;;17.87;12.40;;;1.70;99.90;;;;;;4932778;29;20458;-79
2022/01/16 02:46:45;;;;;;;15.50;9.17;;;1.70;99.90;;;;;;4907899;29;20405;-79
2022/01/16 02:49:33;;;;;;;12.00;8.47;;;1.40;99.90;;;;;;4864371;29;20417;-79
2022/01/16 02:52:20;;;;;;;22.70;10.47;;;1.60;99.90;;;;;;4863163;29;20751;-79
2022/01/16 02:55:06;;;;;;;16.97;9.13;;;1.60;99.90;;;;;;4876894;29;20747;-79
2022/01/16 02:57:54;;;;;;;20.60;12.23;;;1.70;99.90;;;;;;4876380;29;20521;-79
2022/01/16 03:00:39;;;;;;;13.93;10.10;;;1.90;99.90;;;;;;4888908;29;20660;-79
2022/01/16 03:03:25;;;;;;;13.50;9.20;;;1.90;99.90;;;;;;4913381;29;20415;-80
2022/01/16 03:06:10;;;;;;;12.17;8.57;;;1.60;99.90;;;;;;4926672;29;20460;-79
2022/01/16 03:08:55;;;;;;;16.17;8.63;;;1.40;99.90;;;;;;4906986;29;20811;-79
2022/01/16 03:11:46;;;;;;;10.87;8.00;;;1.70;99.90;;;;;;4893453;29;20421;-79
2022/01/16 03:14:30;;;;;;;14.37;9.87;;;1.60;99.90;;;;;;4887734;29;20392;-79
2022/01/16 03:17:37;;;;;;;19.10;11.80;;;1.60;99.90;;;;;;4896190;29;20460;-79
2022/01/16 03:23:28;;;;;;;18.10;9.63;;;1.50;99.90;;;;;;4922551;29;20436;-79
2022/01/16 03:26:13;;;;;;;18.00;8.10;;;1.50;99.90;;;;;;4924250;29;20385;-78
2022/01/16 03:28:58;;;;;;;29.10;12.83;;;1.50;99.90;;;;;;4924120;29;20383;-77
2022/01/16 03:31:46;;;;;;;18.23;11.17;;;1.40;99.90;;;;;;4921985;29;20451;-79
2022/01/16 03:34:31;;;;;;;12.03;8.27;;;1.40;99.90;;;;;;4907163;29;20466;-79
2022/01/16 03:37:17;;;;;;;21.97;11.60;;;1.30;99.90;;;;;;4906921;29;20434;-79
2022/01/16 03:40:05;;;;;;;15.33;10.60;;;1.40;99.90;;;;;;4945715;29;20384;-79
2022/01/16 03:42:49;;;;;;;22.63;12.17;;;1.30;99.90;;;;;;4943448;29;20419;-80
2022/01/16 03:45:34;;;;;;;25.13;10.47;;;1.40;99.90;;;;;;4935772;29;20454;-79
2022/01/16 03:48:20;;;;;;;18.20;9.20;;;1.40;99.90;;;;;;4963939;28;20409;-79
2022/01/16 03:51:04;;;;;;;16.80;10.57;;;1.60;99.90;;;;;;4930776;29;20480;-79
2022/01/16 03:53:50;;;;;;;18.97;8.60;;;1.50;99.90;;;;;;4930816;29;20415;-79
2022/01/16 03:56:36;;;;;;;20.47;11.20;;;1.30;99.90;;;;;;4911342;29;20412;-79
2022/01/16 03:59:21;;;;;;;13.67;9.37;;;1.60;99.90;;;;;;4924654;29;20456;-79
2022/01/16 04:02:06;;;;;;;19.70;10.07;;;1.70;99.90;;;;;;4925282;29;20518;-79
2022/01/16 04:04:51;;;;;;;22.30;11.53;;;1.60;99.90;;;;;;4924454;29;20618;-79
2022/01/16 04:07:37;;;;;;;16.63;8.20;;;1.70;99.90;;;;;;4924793;29;20491;-79
2022/01/16 04:10:22;;;;;;;21.17;10.57;;;1.40;99.90;;;;;;4924509;29;20902;-79
2022/01/16 04:13:08;;;;;;;14.40;8.10;;;1.40;99.90;;;;;;4910820;29;20449;-79
2022/01/16 04:15:53;;;;;;;13.40;7.87;;;1.60;99.90;;;;;;4897470;29;20412;-79
2022/01/16 04:18:39;;;;;;;17.97;11.30;;;1.50;99.90;;;;;;4891948;29;20380;-79
2022/01/16 04:21:26;;;;;;;13.83;7.33;;;1.50;99.90;;;;;;4918372;29;20517;-80
2022/01/16 04:24:14;;;;;;;11.87;9.10;;;1.30;99.90;;;;;;4917802;29;20456;-79
2022/01/16 04:26:58;;;;;;;19.97;7.93;;;1.40;99.90;;;;;;4918981;28;21075;-79
2022/01/16 04:29:43;;;;;;;10.70;6.60;;;1.50;99.90;;;;;;4904673;29;20397;-79
2022/01/16 04:32:27;;;;;;;11.83;6.23;;;1.50;99.90;;;;;;4904918;29;20906;-79
2022/01/16 04:35:13;;;;;;;17.40;10.23;;;1.40;99.90;;;;;;4924980;29;20377;-79
2022/01/16 04:38:00;;;;;;;19.63;10.73;;;1.20;99.90;;;;;;4948214;28;20426;-79
2022/01/16 04:43:47;;;;;;;13.40;8.63;;;1.50;99.90;;;;;;4962386;29;20478;-78
2022/01/16 04:43:52;;;;;;;11.73;9.80;;;1.30;99.90;;;;;;4959818;28;20456;-78
2022/01/16 04:46:38;;;;;;;19.00;10.23;;;1.20;99.90;;;;;;4945245;29;20472;-77
2022/01/16 04:49:22;;;;;;;16.97;9.10;;;1.40;99.90;;;;;;4917988;29;20521;-79
2022/01/16 04:52:07;;;;;;;19.73;12.83;;;1.50;99.90;;;;;;4930823;29;20437;-79
2022/01/16 04:54:53;;;;;;;21.97;9.27;;;1.40;99.90;;;;;;4929475;29;20425;-79
2022/01/16 04:58:01;;;;;;;17.33;8.03;;;1.40;99.90;;;;;;4966236;29;20432;-79
2022/01/16 05:00:50;;;;;;;11.43;6.97;;;1.50;99.90;;;;;;4952941;29;20411;-79
2022/01/16 05:03:36;;;;;;;18.07;10.07;;;1.70;99.90;;;;;;4924576;29;20393;-79
2022/01/16 05:06:21;;;;;;;15.17;6.60;;;1.80;99.90;;;;;;4938930;29;20419;-79
2022/01/16 05:09:06;;;;;;;30.70;10.90;;;1.40;99.90;;;;;;4938374;29;20462;-79
2022/01/16 05:11:55;;;;;;;17.33;10.00;;;1.30;99.90;;;;;;4977817;28;20739;-79
2022/01/16 05:17:43;;;;;;;16.63;9.07;;;1.60;99.90;;;;;;4998412;28;20404;-79
2022/01/16 05:20:29;;;;;;;19.43;8.20;;;1.50;99.90;;;;;;4984446;28;20781;-79
2022/01/16 05:23:15;;;;;;;23.07;9.30;;;1.50;99.90;;;;;;4967366;28;20408;-79
2022/01/16 05:26:01;;;;;;;19.20;11.13;;;1.70;99.90;;;;;;4967963;28;20419;-80
2022/01/16 05:28:48;;;;;;;17.70;9.03;;;1.90;99.90;;;;;;4954395;28;20785;-79
2022/01/16 05:31:35;;;;;;;16.33;7.20;;;2.00;99.90;;;;;;4968940;28;20392;-79
2022/01/16 05:34:23;;;;;;;21.70;8.80;;;2.10;99.90;;;;;;4982327;28;20376;-79
2022/01/16 05:37:07;;;;;;;17.70;10.13;;;2.10;99.90;;;;;;4982829;28;20376;-79
2022/01/16 05:39:52;;;;;;;12.90;8.30;;;1.70;99.90;;;;;;4982691;28;20409;-79
2022/01/16 05:42:36;;;;;;;20.97;8.20;;;1.20;99.90;;;;;;4957742;29;20977;-79
2022/01/16 05:45:21;;;;;;;7.37;4.87;;;1.40;99.90;;;;;;4943640;29;20474;-79
2022/01/16 05:48:07;;;;;;;15.73;6.50;;;1.50;99.90;;;;;;4949318;29;20410;-79
2022/01/16 05:50:52;;;;;;;16.40;8.20;;;1.60;99.90;;;;;;4949498;29;20890;-79
2022/01/16 05:53:37;;;;;;;12.70;6.13;;;1.70;99.90;;;;;;4949262;29;20748;-79
2022/01/16 05:56:25;;;;;;;15.63;7.67;;;1.80;99.90;;;;;;4936593;28;20423;-79
2022/01/16 05:59:10;;;;;;;14.73;8.10;;;2.00;99.90;;;;;;4937140;29;20801;-79
2022/01/16 06:01:54;;;;;;;18.80;7.33;;;2.10;99.90;;;;;;4923916;28;20413;-79
2022/01/16 06:04:39;;;;;;;14.20;5.93;;;2.10;99.90;;;;;;4967215;29;20532;-79
2022/01/16 06:07:24;;;;;;;16.50;7.37;;;1.70;99.90;;;;;;4944277;28;20429;-79
2022/01/16 06:10:10;;;;;;;11.40;5.27;;;1.70;99.90;;;;;;4957592;29;20430;-79
2022/01/16 06:12:55;;;;;;;16.43;8.27;;;1.70;99.90;;;;;;4969621;28;20399;-79
2022/01/16 06:15:40;;;;;;;22.13;7.87;;;1.60;99.90;;;;;;4973980;28;20928;-79
2022/01/16 06:18:29;;;;;;;12.73;8.40;;;1.50;99.90;;;;;;4974259;28;20757;-79
2022/01/16 06:21:13;;;;;;;8.60;5.67;;;1.60;99.90;;;;;;5001811;28;20359;-79
2022/01/16 06:23:58;;;;;;;14.53;9.27;;;1.60;99.90;;;;;;4973639;28;20410;-79
2022/01/16 06:26:42;;;;;;;13.27;7.97;;;1.50;99.90;;;;;;4987453;28;20476;-79
2022/01/16 06:29:30;;;;;;;17.07;9.53;;;1.70;99.90;;;;;;4986315;28;20426;-79
2022/01/16 06:32:15;;;;;;;16.17;9.27;;;1.70;99.90;;;;;;4959870;28;20471;-79
2022/01/16 06:35:01;;;;;;;15.47;8.43;;;1.80;99.90;;;;;;4929730;29;20782;-79
2022/01/16 06:37:48;;;;;;;22.13;7.53;;;1.60;99.90;;;;;;4943752;29;20374;-79
2022/01/16 06:40:33;;;;;;;19.20;7.60;;;1.80;99.90;;;;;;4897671;29;20420;-79
2022/01/16 06:43:18;;;;;;;22.53;8.77;;;1.80;99.90;;;;;;4943408;29;20392;-79
2022/01/16 06:46:03;;;;;;;25.20;8.97;;;1.80;99.90;;;;;;4916642;29;20488;-79
2022/01/16 06:48:50;;;;;;;12.90;7.63;;;1.50;99.90;;;;;;4917290;29;20395;-79
2022/01/16 06:51:34;;;;;;;24.77;9.93;;;1.70;99.90;;;;;;4916862;29;20969;-79
2022/01/16 06:54:19;;;;;;;14.90;9.00;;;1.80;99.90;;;;;;4891848;29;20416;-79
2022/01/16 06:57:08;;;;;;;15.43;9.53;;;1.80;99.90;;;;;;4905612;29;20435;-79
2022/01/16 06:59:54;;;;;;;26.00;8.63;;;1.80;99.90;;;;;;4905135;29;20388;-79
2022/01/16 07:02:39;;;;;;;16.20;7.57;;;1.60;99.90;;;;;;4854540;29;20396;-79
2022/01/16 07:05:26;;;;;;;19.83;10.50;;;1.60;99.90;;;;;;4868160;29;20460;-79
2022/01/16 07:08:11;;;;;;;16.13;9.00;;;2.00;99.90;;;;;;4892361;29;20438;-79
2022/01/16 07:10:57;;;;;;;17.50;8.03;;;2.10;99.90;;;;;;4886847;29;20493;-79
2022/01/16 07:13:41;;;;;;;18.23;8.33;;;1.80;99.90;;;;;;4875630;29;20414;-79
2022/01/16 07:16:27;;;;;;;21.20;8.90;;;1.50;99.90;;;;;;4873989;29;20393;-78
2022/01/16 07:19:15;;;;;;;25.07;10.30;;;1.70;99.90;;;;;;4876919;29;20429;-79
2022/01/16 07:22:00;;;;;;;24.40;10.57;;;1.70;99.90;;;;;;4876317;29;20473;-79
2022/01/16 07:24:45;;;;;;;18.57;9.60;;;1.40;99.90;;;;;;4882818;29;20434;-79
2022/01/16 07:27:30;;;;;;;17.33;10.50;;;1.50;99.90;;;;;;4895451;29;20461;-79
2022/01/16 07:30:15;;;;;;;23.47;10.17;;;1.60;99.90;;;;;;4908012;29;20448;-79
2022/01/16 07:33:00;;;;;;;14.63;8.40;;;1.60;99.90;;;;;;4875651;29;20487;-79
2022/01/16 07:35:44;;;;;;;28.73;11.63;;;1.80;99.90;;;;;;4888706;29;20425;-79
2022/01/16 07:38:30;;;;;;;15.00;7.10;;;1.80;99.90;;;;;;4888116;29;20502;-80
2022/01/16 07:41:14;;;;;;;20.07;11.70;;;1.90;99.90;;;;;;4894602;29;20424;-79
2022/01/16 07:44:01;;;;;;;16.37;6.77;;;1.90;99.90;;;;;;4888299;29;21038;-80
2022/01/16 07:46:45;;;;;;;12.23;7.80;;;1.80;99.90;;;;;;4888131;29;20388;-79
2022/01/16 07:49:31;;;;;;;17.23;8.43;;;1.50;99.90;;;;;;4901229;29;20384;-79
2022/01/16 07:52:16;;;;;;;23.50;8.47;;;1.80;99.90;;;;;;4914196;29;20385;-79
2022/01/16 07:55:02;;;;;;;21.20;8.83;;;2.00;99.90;;;;;;4930781;29;20378;-79
2022/01/16 07:57:51;;;;;;;11.30;7.40;;;1.90;99.90;;;;;;4943457;29;20441;-79
2022/01/16 08:00:37;;;;;;;15.47;9.90;;;1.80;99.90;;;;;;4944440;29;20459;-79
2022/01/16 08:03:22;;;;;;;13.90;9.40;;;1.80;99.90;;;;;;4942407;29;20436;-79
2022/01/16 08:06:10;;;;;;;9.97;6.40;;;1.40;99.90;;;;;;4917006;29;20415;-79
2022/01/16 08:08:56;;;;;;;13.60;8.13;;;1.50;99.90;;;;;;4943604;29;20460;-79
2022/01/16 08:11:40;;;;;;;14.87;6.57;;;1.40;99.90;;;;;;4915777;29;20919;-80
2022/01/16 08:14:26;;;;;;;8.00;5.53;;;1.50;99.90;;;;;;4948747;29;20749;-79
2022/01/16 08:17:10;;;;;;;15.07;8.40;;;1.70;99.90;;;;;;4938776;29;20382;-79
2022/01/16 08:19:55;;;;;;;12.50;8.37;;;1.80;99.90;;;;;;4970076;28;20376;-79
2022/01/16 08:22:41;;;;;;;15.27;7.63;;;1.80;99.90;;;;;;4971337;28;20869;-79
2022/01/16 08:25:26;;;;;;;7.13;5.83;;;1.70;99.90;;;;;;4985098;28;20439;-79
2022/01/16 08:28:13;;;;;;;18.67;7.70;;;1.40;99.90;;;;;;4983300;28;20376;-79
2022/01/16 08:30:59;;;;;;;16.40;7.53;;;1.40;99.90;;;;;;4944088;28;20480;-79
2022/01/16 08:33:45;;;;;;;11.27;7.70;;;1.50;99.90;;;;;;4924484;29;20837;-79
2022/01/16 08:36:29;;;;;;;9.63;7.57;;;1.80;99.90;;;;;;4930543;29;20407;-80
2022/01/16 08:39:16;;;;;;;19.00;7.30;;;2.00;99.90;;;;;;4911832;29;21355;-79
2022/01/16 08:42:02;;;;;;;23.27;7.83;;;1.40;99.90;;;;;;4942124;29;20440;-79
2022/01/16 08:44:46;;;;;;;17.67;9.20;;;1.40;99.90;;;;;;4925817;29;20463;-79
2022/01/16 08:47:31;;;;;;;17.83;8.57;;;1.40;99.90;;;;;;4930597;29;20386;-80
2022/01/16 08:50:16;;;;;;;14.37;6.17;;;1.70;99.90;;;;;;4907346;29;20409;-79
2022/01/16 08:53:02;;;;;;;18.40;8.27;;;1.80;99.90;;;;;;4907327;29;20405;-79
2022/01/16 08:55:47;;;;;;;11.30;7.23;;;2.00;99.90;;;;;;4896616;29;20386;-79
2022/01/16 08:58:32;;;;;;;9.53;4.93;;;2.00;99.90;;;;;;4906591;29;20581;-79
2022/01/16 09:01:16;;;;;;;16.80;7.57;;;2.10;99.90;;;;;;4924809;29;20410;-79
2022/01/16 09:04:01;;;;;;;15.33;8.30;;;2.20;99.90;;;;;;4964148;28;20457;-79
2022/01/16 09:06:45;;;;;;;9.47;7.20;;;2.20;99.90;;;;;;4949153;29;20361;-79
2022/01/16 09:09:31;;;;;;;14.60;7.33;;;1.90;99.90;;;;;;4949937;28;20418;-79
2022/01/16 09:12:16;;;;;;;11.63;7.97;;;1.50;99.90;;;;;;4950368;29;20423;-79
2022/01/16 09:15:01;;;;;;;7.70;5.73;;;1.40;99.90;;;;;;4951117;28;20405;-79
2022/01/16 09:17:45;;;;;;;14.97;8.90;;;1.70;99.90;;;;;;4951788;29;20386;-79
2022/01/16 09:20:31;;;;;;;13.87;9.60;;;1.90;99.90;;;;;;4963458;28;20412;-79
2022/01/16 09:23:17;;;;;;;17.47;6.40;;;1.80;99.90;;;;;;4944095;29;20468;-79
2022/01/16 09:26:03;;;;;;;22.80;8.90;;;1.90;99.90;;;;;;4931766;29;20393;-79
2022/01/16 09:28:49;;;;;;;17.10;6.67;;;2.10;99.90;;;;;;4912191;29;20888;-79
2022/01/16 09:31:33;;;;;;;11.63;7.03;;;2.10;99.90;;;;;;4911396;29;20425;-79
2022/01/16 09:34:39;;;;;;;13.77;7.33;;;2.20;99.90;;;;;;4887543;29;20438;-79
2022/01/16 09:37:23;;;;;;;12.07;7.10;;;2.20;99.90;;;;;;4900863;29;20423;-79
2022/01/16 09:40:09;;;;;;;10.90;6.90;;;2.30;99.90;;;;;;4887465;29;20492;-79
2022/01/16 09:42:58;;;;;;;11.40;8.20;;;2.30;99.90;;;;;;4899915;29;20375;-79
2022/01/16 09:45:44;;;;;;;13.60;7.10;;;2.20;99.90;;;;;;4899973;29;20431;-80
2022/01/16 09:48:28;;;;;;;10.40;7.20;;;2.50;99.90;;;;;;4901181;29;20414;-80
2022/01/16 09:51:16;;;;;;;14.60;7.07;;;2.40;99.90;;;;;;4875503;29;20404;-80
2022/01/16 09:54:01;;;;;;;14.63;7.87;;;2.40;99.90;;;;;;4862127;29;20846;-80
2022/01/16 09:56:47;;;;;;;9.73;8.27;;;2.40;99.90;;;;;;4887125;29;20445;-80
2022/01/16 09:59:31;;;;;;;9.33;7.53;;;2.00;99.90;;;;;;4895847;29;20412;-80
2022/01/16 10:02:16;;;;;;;18.23;8.93;;;2.10;99.90;;;;;;4878702;29;20380;-80
2022/01/16 10:05:01;;;;;;;18.13;10.30;;;2.30;99.90;;;;;;4885715;29;20457;-80
2022/01/16 10:07:47;;;;;;;11.00;7.87;;;2.40;99.90;;;;;;4885329;29;20413;-80
2022/01/16 10:10:37;;;;;;;14.07;9.70;;;2.00;99.90;;;;;;4879486;29;20469;-80
2022/01/16 10:13:32;;;;;;;13.70;7.87;;;2.00;99.90;;;;;;4919961;29;20380;-80
2022/01/16 10:16:27;;;;;;;15.67;9.17;;;2.00;99.90;;;;;;4949230;29;20530;-80
2022/01/16 10:19:25;;;;;;;18.70;9.57;;;2.30;99.90;;;;;;4935604;29;20390;-79
2022/01/16 10:22:14;;;;;;;11.50;8.33;;;2.20;99.90;;;;;;4966003;28;20438;-78
2022/01/16 10:24:59;;;;;;;16.13;8.90;;;2.20;99.90;;;;;;4987527;28;20495;-80
2022/01/16 10:27:46;;;;;;;17.43;9.23;;;2.40;99.90;;;;;;4989292;28;20388;-80
2022/01/16 10:30:41;;;;;;;11.37;7.70;;;2.50;99.90;;;;;;4988957;28;20384;-80
2022/01/16 10:33:32;;;;;;;15.03;8.90;;;2.60;99.90;;;;;;4967476;28;20475;-80
2022/01/16 10:36:35;;;;;;;16.23;8.27;;;2.60;99.90;;;;;;4945941;28;20375;-79
2022/01/16 10:39:20;;;;;;;17.23;10.50;;;2.20;99.90;;;;;;4985903;28;20413;-80
2022/01/16 10:42:19;;;;;;;15.37;7.93;;;2.10;99.90;;;;;;4971970;28;20384;-80
2022/01/16 10:45:14;;;;;;;13.20;8.50;;;1.90;99.90;;;;;;4952284;28;20545;-80
2022/01/16 10:48:01;;;;;;;14.37;8.07;;;2.20;99.90;;;;;;4966045;28;20356;-80
2022/01/16 10:50:51;;;;;;;17.30;9.03;;;2.40;99.90;;;;;;4978961;28;20485;-80
2022/01/16 10:53:40;;;;;;;11.97;9.67;;;2.60;99.90;;;;;;4968603;28;20393;-79
2022/01/16 10:56:27;;;;;;;12.10;7.27;;;2.50;99.90;;;;;;4981242;28;20410;-78
2022/01/16 10:59:26;;;;;;;11.27;8.10;;;2.70;99.90;;;;;;4993937;28;20412;-79
2022/01/16 11:02:11;;;;;;;21.67;11.47;;;2.60;99.90;;;;;;4954251;28;20397;-78
2022/01/16 11:05:05;;;;;;;22.60;8.67;;;2.70;99.90;;;;;;4995079;28;20541;-78
2022/01/16 11:08:00;;;;;;;20.23;10.00;;;2.70;99.90;;;;;;4982393;28;20397;-79
2022/01/16 11:10:54;;;;;;;24.57;10.97;;;2.70;99.90;;;;;;4996469;28;20999;-79
2022/01/16 11:13:40;;;;;;;12.07;8.13;;;2.80;99.90;;;;;;4989273;28;20419;-80
2022/01/16 11:16:45;;;;;;;16.67;9.47;;;2.50;99.90;;;;;;4995704;28;20420;-80
2022/01/16 11:19:35;;;;;;;15.30;9.43;;;2.50;99.90;;;;;;4949735;29;20424;-79
2022/01/16 11:22:58;;;;;;;13.03;7.97;;;2.60;99.90;;;;;;4947829;29;20463;-79
2022/01/16 11:25:44;;;;;;;15.97;9.93;;;2.60;99.90;;;;;;4914621;29;20470;-80
2022/01/16 11:28:51;;;;;;;14.70;8.00;;;2.60;99.90;;;;;;4916022;29;20435;-80
2022/01/16 11:31:55;;;;;;;18.87;8.30;;;2.40;99.90;;;;;;4901119;29;20952;-79
2022/01/16 11:34:41;;;;;;;19.97;10.53;;;2.50;99.90;;;;;;4907246;29;20411;-79
2022/01/16 11:37:27;;;;;;;16.87;8.50;;;2.50;99.90;;;;;;4894434;29;20497;-80
2022/01/16 11:40:44;;;;;;;10.43;8.33;;;2.60;99.90;;;;;;4888824;29;20753;-79
2022/01/16 11:43:33;;;;;;;15.23;9.10;;;2.40;99.90;;;;;;4890956;29;20418;-79
2022/01/16 11:46:23;;;;;;;20.80;11.73;;;2.40;99.90;;;;;;4877079;29;20512;-78
2022/01/16 11:49:13;;;;;;;17.03;10.73;;;2.50;99.90;;;;;;4876717;29;20416;-79
2022/01/16 11:52:35;;;;;;;18.63;10.27;;;2.30;99.90;;;;;;4816052;29;20421;-80
2022/01/16 11:55:33;;;;;;;21.30;9.90;;;2.30;99.90;;;;;;4803995;29;20425;-80
2022/01/16 11:58:19;;;;;;;22.83;10.70;;;2.40;99.90;;;;;;4813891;29;20530;-79
2022/01/16 12:01:05;;;;;;;13.13;7.80;;;2.40;99.90;;;;;;4806049;29;20783;-78
2022/01/16 12:03:51;;;;;;;22.23;11.03;;;2.50;99.90;;;;;;4817566;29;20417;-78
2022/01/16 12:06:37;;;;;;;19.67;9.80;;;2.70;99.90;;;;;;4836947;29;20459;-79
2022/01/16 12:09:57;;;;;;;19.00;10.33;;;2.70;99.90;;;;;;4827100;29;20379;-79
2022/01/16 12:12:43;;;;;;;13.77;8.40;;;2.60;99.90;;;;;;4845194;29;20385;-79
2022/01/16 12:15:32;;;;;;;20.73;9.87;;;2.70;99.90;;;;;;4858051;29;20401;-79
2022/01/16 12:18:34;;;;;;;19.30;9.73;;;2.50;99.90;;;;;;4844920;29;20398;-80
2022/01/16 12:21:33;;;;;;;14.73;8.67;;;2.50;99.90;;;;;;4870952;29;20426;-79
2022/01/16 12:24:41;;;;;;;17.90;9.20;;;2.60;99.90;;;;;;4959379;28;20855;-79
2022/01/16 12:27:39;;;;;;;20.57;11.87;;;2.70;99.90;;;;;;5005230;28;20412;-79
2022/01/16 12:30:50;;;;;;;20.60;10.63;;;2.70;99.90;;;;;;4979592;28;20379;-80
2022/01/16 12:33:40;;;;;;;15.00;9.30;;;2.50;99.90;;;;;;4946226;29;20432;-79
2022/01/16 12:36:34;;;;;;;19.10;9.67;;;2.40;99.90;;;;;;4931983;29;20411;-80
2022/01/16 12:39:20;;;;;;;17.07;11.33;;;2.30;99.90;;;;;;4917851;29;20407;-79
2022/01/16 12:42:05;;;;;;;15.13;7.97;;;2.40;99.90;;;;;;4931546;29;20407;-79
2022/01/16 12:44:52;;;;;;;23.20;11.73;;;2.20;99.90;;;;;;4917615;29;20516;-79
2022/01/16 12:47:38;;;;;;;20.43;9.90;;;2.40;99.90;;;;;;4917967;29;20443;-79
2022/01/16 12:50:23;;;;;;;20.10;10.20;;;2.60;99.90;;;;;;4913301;29;20395;-79
2022/01/16 12:53:09;;;;;;;15.43;8.97;;;2.70;99.90;;;;;;4898853;29;20595;-79
2022/01/16 12:56:13;;;;;;;20.43;9.30;;;2.80;99.90;;;;;;4893821;29;20803;-79
2022/01/16 12:59:12;;;;;;;13.07;7.00;;;2.80;99.90;;;;;;4872511;29;20404;-80
2022/01/16 13:02:01;;;;;;;19.47;9.30;;;2.80;99.90;;;;;;4873840;29;20380;-79
2022/01/16 13:04:46;;;;;;;14.20;9.40;;;2.70;99.90;;;;;;4888588;29;20444;-79
2022/01/16 13:07:34;;;;;;;18.63;9.23;;;2.60;99.90;;;;;;4874620;29;20978;-79
2022/01/16 13:10:18;;;;;;;18.27;9.87;;;2.70;99.90;;;;;;4875233;29;20417;-79
2022/01/16 13:13:11;;;;;;;15.17;8.90;;;2.80;99.90;;;;;;4889515;29;20384;-80
2022/01/16 13:16:17;;;;;;;14.97;8.17;;;2.90;99.90;;;;;;4870352;29;20483;-79
2022/01/16 13:19:08;;;;;;;16.70;8.70;;;3.00;99.90;;;;;;4872479;29;20418;-79
2022/01/16 13:22:02;;;;;;;14.70;9.37;;;2.90;99.90;;;;;;4870602;29;20468;-79
2022/01/16 13:24:55;;;;;;;10.60;7.57;;;3.00;99.90;;;;;;4869292;29;20466;-79
2022/01/16 13:27:43;;;;;;;16.97;8.90;;;3.10;99.90;;;;;;4850696;29;20386;-79
2022/01/16 13:30:29;;;;;;;11.60;6.97;;;2.90;99.90;;;;;;4891075;29;20421;-79
2022/01/16 13:33:33;;;;;;;24.77;9.47;;;2.80;99.90;;;;;;4851388;29;20408;-79
2022/01/16 13:36:42;;;;;;;17.70;9.33;;;2.80;99.90;;;;;;4850865;29;20781;-78
2022/01/16 13:39:39;;;;;;;12.67;7.57;;;2.80;99.90;;;;;;4841393;29;20386;-79
2022/01/16 13:42:37;;;;;;;12.47;6.03;;;2.70;99.90;;;;;;4814605;29;20397;-79
2022/01/16 13:45:35;;;;;;;8.90;6.80;;;2.70;99.90;;;;;;4813406;29;20491;-79
2022/01/16 13:48:28;;;;;;;15.93;9.23;;;2.90;99.90;;;;;;4818092;29;20417;-79
2022/01/16 13:51:12;;;;;;;16.47;7.47;;;2.90;99.90;;;;;;4804662;29;20483;-79
2022/01/16 13:54:11;;;;;;;9.13;7.43;;;2.90;99.90;;;;;;4802467;29;20395;-79
2022/01/16 13:56:57;;;;;;;12.20;8.30;;;2.80;99.90;;;;;;4797642;29;20431;-78
2022/01/16 13:59:57;;;;;;;10.40;7.00;;;2.80;99.90;;;;;;4799979;29;20392;-78
2022/01/16 14:03:11;;;;;;;8.83;5.33;;;2.90;99.90;;;;;;4774974;30;20416;-78
2022/01/16 14:05:57;;;;;;;17.40;9.83;;;2.90;99.90;;;;;;4765798;30;20568;-79
2022/01/16 14:09:10;;;;;;;10.60;6.97;;;2.80;99.90;;;;;;4791030;30;20419;-79
2022/01/16 14:11:55;;;;;;;14.73;7.00;;;2.80;99.90;;;;;;4828183;29;20388;-78
2022/01/16 14:14:40;;;;;;;8.93;6.93;;;2.80;99.90;;;;;;4842596;29;20399;-79
2022/01/16 14:18:07;;;;;;;18.90;9.63;;;2.80;99.90;;;;;;4831464;29;20471;-79
2022/01/16 14:21:58;;;;;;;18.87;9.57;;;2.70;99.90;;;;;;4848745;29;20993;-79
2022/01/16 14:23:56;;;;;;;13.33;9.77;;;2.50;99.90;;;;;;4882534;29;20478;-79
2022/01/16 14:26:53;;;;;;;9.10;6.20;;;2.70;99.90;;;;;;4892312;29;20705;-79
2022/01/16 14:29:44;;;;;;;14.50;7.43;;;2.70;99.90;;;;;;4868923;29;20438;-79
2022/01/16 14:32:29;;;;;;;15.80;7.20;;;2.70;99.90;;;;;;4842448;29;20394;-79
2022/01/16 14:35:14;;;;;;;15.63;8.83;;;2.70;99.90;;;;;;4856663;29;20435;-80
2022/01/16 14:37:58;;;;;;;13.73;9.13;;;2.90;99.90;;;;;;4870094;29;20433;-80
2022/01/16 14:40:43;;;;;;;14.23;8.30;;;2.90;99.90;;;;;;4857503;29;20386;-81
2022/01/16 14:43:28;;;;;;;13.13;7.83;;;2.70;99.90;;;;;;4827021;29;20410;-80
2022/01/16 14:46:12;;;;;;;10.40;7.50;;;2.80;99.90;;;;;;4821321;29;20412;-80
2022/01/16 14:48:58;;;;;;;11.40;7.40;;;2.60;99.90;;;;;;4817963;29;20413;-80
2022/01/16 14:51:43;;;;;;;13.40;8.67;;;2.70;99.90;;;;;;4833464;29;20409;-79
2022/01/16 14:54:28;;;;;;;14.30;8.03;;;2.70;99.90;;;;;;4852367;29;20786;-80
2022/01/16 14:57:12;;;;;;;12.20;7.37;;;2.80;99.90;;;;;;4881008;29;20432;-80
2022/01/16 14:59:57;;;;;;;17.10;8.10;;;2.80;99.90;;;;;;4920440;29;20388;-80
2022/01/16 15:02:42;;;;;;;13.07;9.07;;;2.90;99.90;;;;;;4981275;28;20380;-79
2022/01/16 15:05:26;;;;;;;23.20;9.93;;;3.00;99.90;;;;;;5013158;28;20414;-79
2022/01/16 15:08:11;;;;;;;16.47;8.07;;;2.90;99.90;;;;;;5012619;28;20391;-80
2022/01/16 15:10:56;;;;;;;16.27;9.30;;;2.90;99.90;;;;;;5011219;28;20428;-80